Time;durP1;ratioP1;P1;durP2;ratioP2;P2;SDS_P1;SDS_P2;PMS_P1;PMS_P2;Temp;Humidity;BMP_temperature;BMP_pressure;BME280_temperature;BME280_humidity;BME280_pressure;Samples;Min_cycle;Max_cycle;Signal;HPM_P1;HPM_P2
2023/08/30 00:05:55;;;;;;;15.00;10.70;;;;;;;16.74;97.13;97574.20;436357;1252;99247;-41
2023/08/30 00:16:02;;;;;;;23.80;11.60;;;;;;;16.71;97.08;97562.05;436287;1251;108188;-41
2023/08/30 00:26:09;;;;;;;10.70;8.80;;;;;;;16.69;97.29;97564.97;436422;1253;98830;-42
2023/08/30 00:46:23;;;;;;;13.60;8.50;;;;;;;16.47;97.70;97555.88;436225;1263;107408;-42
2023/08/30 00:56:30;;;;;;;18.10;11.10;;;;;;;16.46;97.61;97554.66;436256;1254;99252;-40
2023/08/30 01:06:37;;;;;;;15.90;8.90;;;;;;;16.38;97.44;97554.39;436283;1252;107446;-41
2023/08/30 01:16:45;;;;;;;14.50;8.20;;;;;;;16.29;97.69;97548.55;436194;1263;99221;-41
2023/08/30 01:26:51;;;;;;;17.40;9.70;;;;;;;16.26;97.63;97541.55;437111;1251;111209;-42
2023/08/30 01:36:59;;;;;;;11.90;8.10;;;;;;;16.25;97.73;97527.01;436147;1263;106633;-40
2023/08/30 01:47:06;;;;;;;10.20;7.70;;;;;;;16.24;97.81;97517.89;436007;1262;99253;-40
2023/08/30 01:57:13;;;;;;;11.20;8.00;;;;;;;16.21;97.82;97507.66;436325;1254;107710;-42
2023/08/30 02:17:30;;;;;;;10.90;7.50;;;;;;;16.10;97.75;97501.13;436069;1251;110388;-41
2023/08/30 02:27:37;;;;;;;10.30;7.20;;;;;;;16.04;97.87;97504.86;435341;1264;106746;-41
2023/08/30 02:37:44;;;;;;;10.60;7.50;;;;;;;16.01;98.05;97506.39;435446;1255;99254;-40
2023/08/30 02:47:51;;;;;;;15.60;8.40;;;;;;;16.03;97.87;97505.94;435170;1254;109205;-40
2023/08/30 02:57:58;;;;;;;14.20;9.80;;;;;;;15.92;97.96;97513.90;435373;1254;99317;-41
2023/08/30 03:08:04;;;;;;;9.10;8.20;;;;;;;15.89;98.00;97515.62;435300;1263;111576;-41
2023/08/30 03:18:10;;;;;;;10.00;8.50;;;;;;;15.87;98.18;97507.05;435385;1251;108852;-42
2023/08/30 03:28:16;;;;;;;14.60;9.90;;;;;;;15.85;98.05;97488.31;436323;1253;98026;-42
2023/08/30 03:38:23;;;;;;;11.90;9.50;;;;;;;15.80;98.10;97483.44;436181;1255;109216;-43
2023/08/30 03:48:29;;;;;;;19.30;12.90;;;;;;;15.79;98.21;97487.66;436132;1254;99237;-42
2023/08/30 03:58:37;;;;;;;21.60;15.90;;;;;;;15.77;98.11;97484.65;436058;1254;111714;-42
2023/08/30 04:08:44;;;;;;;25.40;18.20;;;;;;;15.71;98.34;97496.02;436107;1254;106332;-41
2023/08/30 04:18:50;;;;;;;24.40;17.50;;;;;;;15.74;98.22;97496.11;436346;1255;99258;-41
2023/08/30 04:28:57;;;;;;;24.20;17.00;;;;;;;15.76;98.33;97507.55;436105;1251;109583;-41
2023/08/30 04:59:14;;;;;;;18.20;12.10;;;;;;;15.85;98.45;97511.03;436088;1251;107651;-42
2023/08/30 05:09:24;;;;;;;11.80;9.30;;;;;;;15.87;98.05;97510.26;436056;1251;98849;-40
2023/08/30 05:19:31;;;;;;;15.20;7.50;;;;;;;15.83;98.20;97515.21;436158;1255;106832;-41
2023/08/30 05:29:37;;;;;;;13.70;10.00;;;;;;;15.81;98.20;97514.60;436053;1254;98836;-42
2023/08/30 05:39:44;;;;;;;14.20;9.60;;;;;;;15.88;98.44;97514.55;436050;1251;111247;-41
2023/08/30 05:49:51;;;;;;;17.90;10.80;;;;;;;15.88;98.13;97516.81;436081;1251;107254;-41
2023/08/30 05:59:57;;;;;;;15.70;10.50;;;;;;;15.91;98.18;97517.12;436099;1251;99209;-41
2023/08/30 06:10:01;;;;;;;17.00;9.30;;;;;;;16.00;98.01;97519.42;436118;1254;108554;-41
2023/08/30 06:20:10;;;;;;;15.40;10.40;;;;;;;15.98;97.88;97536.36;436159;1253;99235;-40
2023/08/30 06:40:21;;;;;;;15.10;10.40;;;;;;;15.78;97.96;97542.33;436054;1250;107563;-40
2023/08/30 06:50:28;;;;;;;11.20;7.60;;;;;;;15.76;97.97;97546.82;436067;1253;97992;-42
2023/08/30 07:00:35;;;;;;;11.10;6.30;;;;;;;15.74;97.95;97554.97;436225;1253;108732;-40
2023/08/30 07:20:49;;;;;;;5.70;4.30;;;;;;;15.80;97.75;97564.41;436157;1253;111070;-40
2023/08/30 07:31:03;;;;;;;4.60;3.80;;;;;;;15.98;98.20;97568.40;436068;1250;108428;-40
2023/08/30 07:41:12;;;;;;;2.60;2.00;;;;;;;16.05;97.86;97571.88;436203;1250;99221;-39
2023/08/30 07:51:19;;;;;;;2.60;2.30;;;;;;;16.06;97.62;97576.86;436252;1253;108455;-41
2023/08/30 08:01:26;;;;;;;4.70;2.80;;;;;;;16.07;97.73;97580.21;436098;1253;99214;-42
2023/08/30 08:11:34;;;;;;;5.00;3.70;;;;;;;15.94;97.57;97581.05;436124;1249;111864;-42
2023/08/30 08:31:46;;;;;;;6.90;5.60;;;;;;;16.00;97.65;97595.62;436299;1250;99221;-42
2023/08/30 08:41:54;;;;;;;8.80;6.30;;;;;;;15.90;97.58;97600.05;436104;1253;108302;-42
2023/08/30 08:52:03;;;;;;;6.80;3.90;;;;;;;15.88;97.66;97605.04;436193;1253;99228;-43
2023/08/30 09:02:22;;;;;;;6.90;4.00;;;;;;;15.88;97.89;97613.20;436241;1253;112433;-43
2023/08/30 09:32:49;;;;;;;6.20;4.00;;;;;;;16.16;98.25;97635.54;436177;1253;106840;-42
2023/08/30 09:42:59;;;;;;;4.20;2.10;;;;;;;16.34;98.04;97642.28;436174;1254;99211;-41
2023/08/30 10:03:24;;;;;;;2.10;1.80;;;;;;;16.72;97.90;97635.25;436152;1253;107787;-41
2023/08/30 10:13:36;;;;;;;2.50;1.40;;;;;;;17.05;97.82;97635.04;436364;1250;98855;-41
2023/08/30 10:23:43;;;;;;;2.10;0.80;;;;;;;17.36;97.63;97634.02;436262;1253;107464;-40
2023/08/30 10:43:57;;;;;;;0.60;0.60;;;;;;;17.55;97.03;97642.88;436283;1253;110609;-40
2023/08/30 10:54:12;;;;;;;0.90;0.80;;;;;;;17.67;96.83;97647.59;436322;1253;108434;-45
2023/08/30 11:04:19;;;;;;;0.70;0.70;;;;;;;17.74;96.47;97648.48;436256;1253;99147;-41
2023/08/30 11:14:26;;;;;;;1.90;1.00;;;;;;;17.61;96.24;97650.05;436288;1251;107429;-41
2023/08/30 11:24:34;;;;;;;0.60;0.60;;;;;;;17.71;96.20;97638.52;436279;1250;99262;-41
2023/08/30 11:44:46;;;;;;;1.10;1.00;;;;;;;18.27;95.47;97625.78;436218;1254;108290;-41
2023/08/30 11:54:55;;;;;;;1.30;1.20;;;;;;;18.14;94.99;97620.48;436264;1253;99397;-42
2023/08/30 12:05:02;;;;;;;1.90;1.70;;;;;;;17.92;94.68;97631.30;436406;1253;107389;-41
2023/08/30 12:15:12;;;;;;;4.10;1.30;;;;;;;18.05;94.88;97618.27;436323;1253;99243;-41
2023/08/30 12:25:19;;;;;;;4.00;1.70;;;;;;;18.11;94.47;97614.61;436306;1253;110499;-41
2023/08/30 12:45:31;;;;;;;2.60;1.30;;;;;;;18.25;94.47;97614.05;436433;1252;97986;-41
2023/08/30 12:55:40;;;;;;;5.80;1.30;;;;;;;18.50;93.77;97624.02;436342;1251;108333;-41
2023/08/30 13:05:46;;;;;;;1.80;0.90;;;;;;;18.46;93.07;97627.10;436281;1254;99215;-41
2023/08/30 13:15:53;;;;;;;4.30;1.40;;;;;;;18.57;92.98;97619.80;436537;1253;111801;-42
2023/08/30 13:26:00;;;;;;;2.20;1.50;;;;;;;18.53;92.48;97616.02;436233;1251;109339;-41
2023/08/30 13:36:08;;;;;;;2.20;1.50;;;;;;;18.43;92.32;97626.73;436336;1249;97975;-41
2023/08/30 13:46:15;;;;;;;1.90;1.60;;;;;;;18.37;91.97;97636.67;436289;1253;108152;-41
2023/08/30 13:56:21;;;;;;;4.20;1.30;;;;;;;18.46;91.86;97633.73;436247;1253;99315;-41
2023/08/30 14:06:28;;;;;;;3.50;2.50;;;;;;;18.49;91.54;97638.98;436276;1253;111671;-40
2023/08/30 14:16:33;;;;;;;4.60;2.80;;;;;;;18.23;91.19;97640.54;436286;1251;107350;-41
2023/08/30 14:26:40;;;;;;;3.80;3.40;;;;;;;17.86;90.89;97638.96;436234;1272;99234;-41
2023/08/30 14:46:54;;;;;;;3.10;2.20;;;;;;;17.79;91.13;97642.17;437376;1253;99176;-40
2023/08/30 14:57:00;;;;;;;2.90;2.10;;;;;;;17.84;90.99;97638.60;436739;1250;111959;-41
2023/08/30 15:07:07;;;;;;;3.70;2.50;;;;;;;17.86;91.13;97646.83;436888;1251;108175;-42
2023/08/30 15:57:39;;;;;;;4.30;3.40;;;;;;;17.02;90.64;97690.60;438088;1251;108609;-41
2023/08/30 16:07:45;;;;;;;3.80;3.20;;;;;;;16.87;90.68;97694.40;437505;1251;99243;-41
2023/08/30 16:17:51;;;;;;;4.10;3.40;;;;;;;16.80;90.56;97685.38;438216;1253;108634;-40
2023/08/30 16:27:57;;;;;;;5.00;2.80;;;;;;;16.72;90.65;97690.73;436207;1253;98814;-41
2023/08/30 16:58:13;;;;;;;8.70;5.20;;;;;;;16.50;90.89;97695.05;437766;1250;98344;-41
2023/08/30 17:08:20;;;;;;;3.50;3.20;;;;;;;16.42;91.06;97703.24;438850;1253;107566;-40
2023/08/30 17:18:28;;;;;;;4.20;3.80;;;;;;;16.41;91.32;97703.79;438991;1251;98830;-41
2023/08/30 17:28:36;;;;;;;3.40;3.10;;;;;;;16.42;91.48;97709.27;438286;1253;111594;-41
2023/08/30 17:38:42;;;;;;;5.50;3.60;;;;;;;16.35;91.39;97705.10;438896;1253;106182;-43
2023/08/30 17:48:48;;;;;;;3.80;3.40;;;;;;;16.27;91.30;97716.25;438374;1253;99202;-42
2023/08/30 17:58:55;;;;;;;4.60;4.20;;;;;;;16.18;91.37;97716.08;438223;1253;107739;-41
2023/08/30 18:39:21;;;;;;;4.80;3.70;;;;;;;16.02;91.56;97731.16;438068;1251;99256;-45
2023/08/30 18:59:35;;;;;;;5.60;3.80;;;;;;;15.89;91.76;97749.66;438511;1251;99205;-41
2023/08/30 19:09:41;;;;;;;3.80;3.50;;;;;;;15.78;91.73;97755.02;437890;1253;111585;-42
2023/08/30 19:19:47;;;;;;;4.00;3.60;;;;;;;15.71;91.77;97751.27;439108;1253;107966;-41
2023/08/30 19:29:55;;;;;;;5.60;4.40;;;;;;;15.75;92.04;97747.70;438953;1251;98718;-42
2023/08/30 19:50:11;;;;;;;5.40;4.80;;;;;;;15.86;92.25;97757.06;436821;1254;98798;-41
2023/08/30 20:00:18;;;;;;;6.60;3.40;;;;;;;15.70;92.13;97760.64;437460;1253;111490;-40
2023/08/30 20:10:25;;;;;;;3.60;3.30;;;;;;;15.54;92.25;97749.28;437891;1250;109272;-41
2023/08/30 20:40:53;;;;;;;4.10;3.50;;;;;;;15.47;92.86;97772.44;437552;1254;99325;-43
2023/08/30 21:01:08;;;;;;;4.90;3.00;;;;;;;15.39;92.63;97789.89;437630;1263;108407;-41
2023/08/30 21:11:14;;;;;;;3.00;2.80;;;;;;;15.47;92.91;97795.62;436927;1253;99252;-41
2023/08/30 21:21:21;;;;;;;4.50;3.60;;;;;;;15.53;92.87;97793.25;436737;1253;109529;-42
2023/08/30 21:31:28;;;;;;;4.80;3.60;;;;;;;15.59;93.11;97790.38;436819;1263;98813;-41
2023/08/30 21:41:36;;;;;;;3.50;3.20;;;;;;;15.50;92.87;97791.11;436904;1263;111137;-41
2023/08/30 21:51:44;;;;;;;3.60;3.30;;;;;;;15.40;92.87;97802.81;436262;1254;108224;-40
2023/08/30 22:01:50;;;;;;;3.80;3.40;;;;;;;15.27;92.74;97802.55;436243;1253;99128;-41
2023/08/30 22:11:57;;;;;;;3.80;3.50;;;;;;;15.19;93.05;97807.64;436240;1254;109391;-41
2023/08/30 22:22:03;;;;;;;6.10;3.90;;;;;;;15.20;93.24;97797.04;436329;1254;99250;-41
2023/08/30 22:32:10;;;;;;;5.60;3.50;;;;;;;15.18;93.22;97803.18;436037;1263;110153;-41
2023/08/30 22:42:15;;;;;;;7.10;4.60;;;;;;;15.20;93.44;97801.45;436269;1254;108059;-40
2023/08/30 22:52:24;;;;;;;7.30;4.40;;;;;;;15.19;93.26;97808.65;436341;1253;99218;-42
2023/08/30 23:02:31;;;;;;;6.30;4.60;;;;;;;15.24;93.53;97813.19;436168;1254;108119;-41
2023/08/30 23:12:39;;;;;;;9.50;5.60;;;;;;;15.17;93.29;97821.17;436183;1253;99297;-41
2023/08/30 23:22:46;;;;;;;8.60;5.40;;;;;;;15.11;93.40;97830.80;436182;1253;111957;-41
2023/08/30 23:32:51;;;;;;;7.40;5.10;;;;;;;15.13;93.70;97821.74;436101;1253;110821;-42
2023/08/30 23:42:57;;;;;;;6.70;4.80;;;;;;;15.16;93.61;97824.80;436226;1253;97931;-41
2023/08/30 23:53:06;;;;;;;6.80;5.70;;;;;;;15.14;93.74;97833.82;436061;1253;108678;-41
